EDMA/AGB METAR and TAF weather

Enter ICAO airport designator
Station Type Date Time Source
EDMA METAR 2018/07/21 11:20 UTC NOAA

EDMA 211120Z 00000KT 9999 FEW024 BKN048 18/16 Q1014


Station Type Date Time Source
EDMA Decoded METAR 2018/07/21 11:20 UTC NOAA

Augsburg, Germany (EDMA) 48-26N 010-56E 463M
Jul 21, 2018 - 07:20 AM EDT / 2018.07.21 1120 UTC
Wind: Calm:0
Visibility: greater than 7 mile(s):0
Sky conditions: mostly cloudy
Temperature: 64 F (18 C)
Dew Point: 60 F (16 C)
Relative Humidity: 88%
Pressure (altimeter): 29.94 in. Hg (1014 hPa)
ob: EDMA 211120Z 00000KT 9999 FEW024 BKN048 18/16 Q1014
cycle: 11

Station Type Date Time Source
EDMA TAF 2010/02/22 13:50 UTC NOAA

METAR EDMA 221350Z 23006KT CAVOK 10/02 Q0996


Example: see airport list